sensor_id;sensor_type;location;lat;lon;timestamp;noise_LAeq;noise_LA_min;noise_LA_max;noise_LA01;noise_LA95
46749;Laerm;33775;47.992;11.864;2023-04-19T00:00:04;36.39;29.92;39.08;;
46749;Laerm;33775;47.992;11.864;2023-04-19T00:02:32;36.42;26.91;39.34;;
46749;Laerm;33775;47.992;11.864;2023-04-19T00:04:58;36.40;29.92;39.46;;
46749;Laerm;33775;47.992;11.864;2023-04-19T00:07:23;36.40;28.67;39.34;;
46749;Laerm;33775;47.992;11.864;2023-04-19T00:09:48;36.40;29.92;39.58;;
46749;Laerm;33775;47.992;11.864;2023-04-19T00:12:13;36.41;29.92;39.08;;
46749;Laerm;33775;47.992;11.864;2023-04-19T00:14:38;36.43;28.67;39.21;;
46749;Laerm;33775;47.992;11.864;2023-04-19T00:17:03;36.44;29.92;39.34;;
46749;Laerm;33775;47.992;11.864;2023-04-19T00:19:29;36.45;29.92;39.34;;
46749;Laerm;33775;47.992;11.864;2023-04-19T00:21:54;36.42;28.67;39.21;;
46749;Laerm;33775;47.992;11.864;2023-04-19T00:24:19;36.51;29.92;39.34;;
46749;Laerm;33775;47.992;11.864;2023-04-19T00:26:44;36.52;29.92;39.58;;
46749;Laerm;33775;47.992;11.864;2023-04-19T00:29:09;36.50;28.67;39.08;;
46749;Laerm;33775;47.992;11.864;2023-04-19T00:31:35;36.48;28.67;39.58;;
46749;Laerm;33775;47.992;11.864;2023-04-19T00:34:00;36.48;30.89;39.21;;
46749;Laerm;33775;47.992;11.864;2023-04-19T00:36:25;36.47;28.67;39.21;;
46749;Laerm;33775;47.992;11.864;2023-04-19T00:38:51;36.51;30.54;39.34;;
46749;Laerm;33775;47.992;11.864;2023-04-19T00:41:16;36.52;29.92;39.58;;
46749;Laerm;33775;47.992;11.864;2023-04-19T00:43:41;36.54;29.92;39.34;;
46749;Laerm;33775;47.992;11.864;2023-04-19T00:46:06;36.55;28.67;39.34;;
46749;Laerm;33775;47.992;11.864;2023-04-19T00:48:33;36.60;29.92;39.70;;
46749;Laerm;33775;47.992;11.864;2023-04-19T00:51:00;36.71;28.67;39.21;;
46749;Laerm;33775;47.992;11.864;2023-04-19T00:53:25;36.67;28.67;39.21;;
46749;Laerm;33775;47.992;11.864;2023-04-19T00:55:50;36.72;30.89;39.70;;
46749;Laerm;33775;47.992;11.864;2023-04-19T00:58:16;36.71;28.67;39.21;;
46749;Laerm;33775;47.992;11.864;2023-04-19T01:00:42;36.71;28.67;39.46;;
46749;Laerm;33775;47.992;11.864;2023-04-19T01:03:07;36.70;29.92;39.58;;
46749;Laerm;33775;47.992;11.864;2023-04-19T01:05:32;36.76;30.89;39.34;;
46749;Laerm;33775;47.992;11.864;2023-04-19T01:07:58;36.74;29.92;39.34;;
46749;Laerm;33775;47.992;11.864;2023-04-19T01:10:23;36.78;28.67;39.46;;
46749;Laerm;33775;47.992;11.864;2023-04-19T01:12:48;36.78;26.91;39.46;;
46749;Laerm;33775;47.992;11.864;2023-04-19T01:15:13;36.74;28.67;39.46;;
46749;Laerm;33775;47.992;11.864;2023-04-19T01:17:39;36.70;29.92;39.92;;
46749;Laerm;33775;47.992;11.864;2023-04-19T01:20:04;36.65;28.67;39.34;;
46749;Laerm;33775;47.992;11.864;2023-04-19T01:22:33;36.60;26.91;39.81;;
46749;Laerm;33775;47.992;11.864;2023-04-19T01:24:58;36.64;28.67;39.57;;
46749;Laerm;33775;47.992;11.864;2023-04-19T01:27:23;36.64;29.92;39.58;;
46749;Laerm;33775;47.992;11.864;2023-04-19T01:29:48;36.60;30.89;39.34;;
46749;Laerm;33775;47.992;11.864;2023-04-19T01:32:14;36.57;29.92;39.46;;
46749;Laerm;33775;47.992;11.864;2023-04-19T01:34:39;36.64;29.92;39.58;;
46749;Laerm;33775;47.992;11.864;2023-04-19T01:37:05;36.58;29.92;39.46;;
46749;Laerm;33775;47.992;11.864;2023-04-19T01:39:31;36.58;29.92;39.34;;
46749;Laerm;33775;47.992;11.864;2023-04-19T01:41:56;36.61;30.89;40.03;;
46749;Laerm;33775;47.992;11.864;2023-04-19T01:44:21;36.59;28.67;39.46;;
46749;Laerm;33775;47.992;11.864;2023-04-19T01:46:46;36.61;28.67;39.34;;
46749;Laerm;33775;47.992;11.864;2023-04-19T01:49:12;36.58;28.67;39.46;;
46749;Laerm;33775;47.992;11.864;2023-04-19T01:51:37;36.56;29.92;39.34;;
46749;Laerm;33775;47.992;11.864;2023-04-19T01:54:02;36.58;29.92;39.46;;
46749;Laerm;33775;47.992;11.864;2023-04-19T01:56:28;36.54;29.92;40.03;;
46749;Laerm;33775;47.992;11.864;2023-04-19T01:58:53;36.52;29.92;39.46;;
46749;Laerm;33775;47.992;11.864;2023-04-19T02:01:19;36.60;28.67;39.21;;
46749;Laerm;33775;47.992;11.864;2023-04-19T02:03:44;36.58;29.92;39.46;;
46749;Laerm;33775;47.992;11.864;2023-04-19T02:06:10;36.59;30.89;39.21;;
46749;Laerm;33775;47.992;11.864;2023-04-19T02:08:36;36.58;29.92;39.58;;
46749;Laerm;33775;47.992;11.864;2023-04-19T02:11:05;36.56;29.92;39.34;;
46749;Laerm;33775;47.992;11.864;2023-04-19T02:13:30;36.58;28.67;39.34;;
46749;Laerm;33775;47.992;11.864;2023-04-19T02:15:55;36.63;28.67;39.70;;
46749;Laerm;33775;47.992;11.864;2023-04-19T02:18:21;36.66;29.92;39.34;;
46749;Laerm;33775;47.992;11.864;2023-04-19T02:20:46;36.73;29.92;39.58;;
46749;Laerm;33775;47.992;11.864;2023-04-19T02:23:11;36.85;29.92;39.58;;
46749;Laerm;33775;47.992;11.864;2023-04-19T02:25:36;37.13;31.68;39.70;;
46749;Laerm;33775;47.992;11.864;2023-04-19T02:28:01;37.30;30.89;39.70;;
46749;Laerm;33775;47.992;11.864;2023-04-19T02:30:27;37.49;32.35;39.70;;
46749;Laerm;33775;47.992;11.864;2023-04-19T02:32:52;37.64;32.93;39.89;;
46749;Laerm;33775;47.992;11.864;2023-04-19T02:35:18;37.73;32.35;39.58;;
46749;Laerm;33775;47.992;11.864;2023-04-19T02:37:44;37.83;32.93;39.81;;
46749;Laerm;33775;47.992;11.864;2023-04-19T02:40:09;37.93;33.44;39.70;;
46749;Laerm;33775;47.992;11.864;2023-04-19T02:42:34;38.00;30.89;39.81;;
46749;Laerm;33775;47.992;11.864;2023-04-19T02:45:00;38.09;34.69;40.03;;
46749;Laerm;33775;47.992;11.864;2023-04-19T02:47:25;38.23;35.04;40.13;;
46749;Laerm;33775;47.992;11.864;2023-04-19T02:49:50;38.32;34.69;40.13;;
46749;Laerm;33775;47.992;11.864;2023-04-19T02:52:15;38.39;34.31;40.13;;
46749;Laerm;33775;47.992;11.864;2023-04-19T02:54:40;38.42;34.34;40.13;;
46749;Laerm;33775;47.992;11.864;2023-04-19T02:57:05;38.41;33.44;40.13;;
46749;Laerm;33775;47.992;11.864;2023-04-19T02:59:31;38.43;33.90;40.13;;
46749;Laerm;33775;47.992;11.864;2023-04-19T03:01:56;38.44;34.31;40.23;;
46749;Laerm;33775;47.992;11.864;2023-04-19T03:04:21;38.49;32.93;40.03;;
46749;Laerm;33775;47.992;11.864;2023-04-19T03:06:46;38.48;34.31;40.13;;
46749;Laerm;33775;47.992;11.864;2023-04-19T03:09:11;38.46;33.44;40.23;;
46749;Laerm;33775;47.992;11.864;2023-04-19T03:11:37;38.45;33.90;40.43;;
46749;Laerm;33775;47.992;11.864;2023-04-19T03:14:02;38.52;32.93;40.53;;
46749;Laerm;33775;47.992;11.864;2023-04-19T03:16:27;38.51;32.93;40.23;;
46749;Laerm;33775;47.992;11.864;2023-04-19T03:18:54;38.53;34.31;40.23;;
46749;Laerm;33775;47.992;11.864;2023-04-19T03:21:19;38.56;32.35;40.23;;
46749;Laerm;33775;47.992;11.864;2023-04-19T03:23:44;38.59;32.35;40.43;;
46749;Laerm;33775;47.992;11.864;2023-04-19T03:26:10;38.62;35.36;40.33;;
46749;Laerm;33775;47.992;11.864;2023-04-19T03:28:35;38.58;33.90;40.43;;
46749;Laerm;33775;47.992;11.864;2023-04-19T03:31:00;38.51;33.44;40.33;;
46749;Laerm;33775;47.992;11.864;2023-04-19T03:33:26;38.50;33.90;40.23;;
46749;Laerm;33775;47.992;11.864;2023-04-19T03:35:51;38.53;32.93;40.33;;
46749;Laerm;33775;47.992;11.864;2023-04-19T03:38:16;38.53;33.90;40.33;;
46749;Laerm;33775;47.992;11.864;2023-04-19T03:40:42;38.50;34.31;40.33;;
46749;Laerm;33775;47.992;11.864;2023-04-19T03:43:07;38.47;34.31;40.43;;
46749;Laerm;33775;47.992;11.864;2023-04-19T03:45:32;38.47;33.44;40.53;;
46749;Laerm;33775;47.992;11.864;2023-04-19T03:47:57;38.44;32.93;40.53;;
46749;Laerm;33775;47.992;11.864;2023-04-19T03:50:22;38.53;33.44;40.23;;
46749;Laerm;33775;47.992;11.864;2023-04-19T03:52:47;38.56;34.69;40.43;;
46749;Laerm;33775;47.992;11.864;2023-04-19T03:55:13;38.60;33.90;40.53;;
46749;Laerm;33775;47.992;11.864;2023-04-19T03:57:38;38.59;33.90;40.33;;
46749;Laerm;33775;47.992;11.864;2023-04-19T04:00:03;38.57;32.93;40.43;;
46749;Laerm;33775;47.992;11.864;2023-04-19T04:02:32;38.51;33.90;40.43;;
46749;Laerm;33775;47.992;11.864;2023-04-19T04:04:57;38.52;33.44;40.23;;
46749;Laerm;33775;47.992;11.864;2023-04-19T04:07:23;38.51;34.34;40.23;;
46749;Laerm;33775;47.992;11.864;2023-04-19T04:09:48;38.51;33.90;40.71;;
46749;Laerm;33775;47.992;11.864;2023-04-19T04:12:13;38.61;33.90;40.53;;
46749;Laerm;33775;47.992;11.864;2023-04-19T04:14:39;38.60;34.31;40.53;;
46749;Laerm;33775;47.992;11.864;2023-04-19T04:17:04;38.57;33.90;40.53;;
46749;Laerm;33775;47.992;11.864;2023-04-19T04:19:29;38.56;33.44;40.43;;
46749;Laerm;33775;47.992;11.864;2023-04-19T04:21:54;38.54;32.93;40.23;;
46749;Laerm;33775;47.992;11.864;2023-04-19T04:24:20;38.62;34.31;40.33;;
46749;Laerm;33775;47.992;11.864;2023-04-19T04:26:46;38.60;33.44;40.33;;
46749;Laerm;33775;47.992;11.864;2023-04-19T04:29:13;38.54;33.90;40.43;;
46749;Laerm;33775;47.992;11.864;2023-04-19T04:31:39;38.54;34.69;40.33;;
46749;Laerm;33775;47.992;11.864;2023-04-19T04:34:04;38.56;32.93;40.43;;
46749;Laerm;33775;47.992;11.864;2023-04-19T04:36:30;38.56;32.93;40.33;;
46749;Laerm;33775;47.992;11.864;2023-04-19T04:38:55;38.55;33.90;40.23;;
46749;Laerm;33775;47.992;11.864;2023-04-19T04:41:21;38.53;33.44;40.33;;
46749;Laerm;33775;47.992;11.864;2023-04-19T04:43:46;38.49;34.31;40.43;;
46749;Laerm;33775;47.992;11.864;2023-04-19T04:46:15;38.52;33.90;40.23;;
46749;Laerm;33775;47.992;11.864;2023-04-19T04:48:40;38.50;35.04;40.33;;
46749;Laerm;33775;47.992;11.864;2023-04-19T04:51:05;38.53;33.44;40.13;;
46749;Laerm;33775;47.992;11.864;2023-04-19T04:53:31;38.53;34.31;40.43;;
46749;Laerm;33775;47.992;11.864;2023-04-19T04:55:56;38.48;33.90;40.23;;
46749;Laerm;33775;47.992;11.864;2023-04-19T04:58:21;38.49;33.44;40.43;;
46749;Laerm;33775;47.992;11.864;2023-04-19T05:00:46;38.39;32.93;40.13;;
46749;Laerm;33775;47.992;11.864;2023-04-19T05:03:12;38.39;33.44;40.23;;
46749;Laerm;33775;47.992;11.864;2023-04-19T05:05:38;38.43;31.68;40.33;;
46749;Laerm;33775;47.992;11.864;2023-04-19T05:08:03;38.44;33.90;40.23;;
46749;Laerm;33775;47.992;11.864;2023-04-19T05:10:28;38.47;32.35;40.23;;
46749;Laerm;33775;47.992;11.864;2023-04-19T05:12:54;38.49;32.93;40.23;;
46749;Laerm;33775;47.992;11.864;2023-04-19T05:15:19;38.50;32.93;40.23;;
46749;Laerm;33775;47.992;11.864;2023-04-19T05:17:44;38.54;33.90;40.43;;
46749;Laerm;33775;47.992;11.864;2023-04-19T05:20:09;38.55;31.68;40.33;;
46749;Laerm;33775;47.992;11.864;2023-04-19T05:22:35;38.64;34.69;40.33;;
46749;Laerm;33775;47.992;11.864;2023-04-19T05:25:00;38.61;33.44;40.43;;
46749;Laerm;33775;47.992;11.864;2023-04-19T05:27:26;38.62;34.31;40.43;;
46749;Laerm;33775;47.992;11.864;2023-04-19T05:29:51;38.67;31.68;40.62;;
46749;Laerm;33775;47.992;11.864;2023-04-19T05:32:17;38.63;33.44;40.23;;
46749;Laerm;33775;47.992;11.864;2023-04-19T05:34:42;38.68;32.93;40.43;;
46749;Laerm;33775;47.992;11.864;2023-04-19T05:37:07;38.77;35.04;40.71;;
46749;Laerm;33775;47.992;11.864;2023-04-19T05:39:33;38.85;35.04;40.62;;
46749;Laerm;33775;47.992;11.864;2023-04-19T05:41:58;38.91;35.86;40.62;;
46749;Laerm;33775;47.992;11.864;2023-04-19T05:44:24;38.91;34.69;40.53;;
46749;Laerm;33775;47.992;11.864;2023-04-19T05:46:49;38.87;35.36;40.43;;
46749;Laerm;33775;47.992;11.864;2023-04-19T05:49:14;38.80;35.66;40.43;;
46749;Laerm;33775;47.992;11.864;2023-04-19T05:51:39;38.79;35.94;40.53;;
46749;Laerm;33775;47.992;11.864;2023-04-19T05:54:05;38.74;36.20;40.23;;
46749;Laerm;33775;47.992;11.864;2023-04-19T05:56:30;38.80;35.66;40.43;;
46749;Laerm;33775;47.992;11.864;2023-04-19T05:58:55;38.79;35.04;40.33;;
46749;Laerm;33775;47.992;11.864;2023-04-19T06:01:21;38.93;36.91;40.53;;
46749;Laerm;33775;47.992;11.864;2023-04-19T06:03:46;38.91;35.66;40.43;;
46749;Laerm;33775;47.992;11.864;2023-04-19T06:06:11;38.86;35.66;40.43;;
46749;Laerm;33775;47.992;11.864;2023-04-19T06:08:36;38.84;35.04;40.43;;
46749;Laerm;33775;47.992;11.864;2023-04-19T06:11:02;38.83;35.36;40.43;;
46749;Laerm;33775;47.992;11.864;2023-04-19T06:13:27;38.74;33.90;40.23;;
46749;Laerm;33775;47.992;11.864;2023-04-19T06:15:52;38.71;35.36;40.33;;
46749;Laerm;33775;47.992;11.864;2023-04-19T06:18:17;38.75;33.90;40.23;;
46749;Laerm;33775;47.992;11.864;2023-04-19T06:20:42;38.77;35.66;40.43;;
46749;Laerm;33775;47.992;11.864;2023-04-19T06:23:08;38.86;34.69;40.53;;
46749;Laerm;33775;47.992;11.864;2023-04-19T06:25:33;38.88;35.94;40.33;;
46749;Laerm;33775;47.992;11.864;2023-04-19T06:27:58;38.86;36.20;40.43;;
46749;Laerm;33775;47.992;11.864;2023-04-19T06:30:23;38.85;35.36;40.53;;
46749;Laerm;33775;47.992;11.864;2023-04-19T06:32:48;38.81;34.69;40.33;;
46749;Laerm;33775;47.992;11.864;2023-04-19T06:35:14;38.80;35.94;40.53;;
46749;Laerm;33775;47.992;11.864;2023-04-19T06:37:39;38.73;36.20;40.23;;
46749;Laerm;33775;47.992;11.864;2023-04-19T06:40:05;38.70;33.90;40.33;;
46749;Laerm;33775;47.992;11.864;2023-04-19T06:42:32;38.77;36.45;40.33;;
46749;Laerm;33775;47.992;11.864;2023-04-19T06:44:57;39.14;37.12;40.53;;
46749;Laerm;33775;47.992;11.864;2023-04-19T06:47:22;39.05;35.66;40.71;;
46749;Laerm;33775;47.992;11.864;2023-04-19T06:49:47;38.92;36.45;40.33;;
46749;Laerm;33775;47.992;11.864;2023-04-19T06:52:13;38.87;36.69;40.43;;
46749;Laerm;33775;47.992;11.864;2023-04-19T06:54:38;38.79;35.66;40.53;;
46749;Laerm;33775;47.992;11.864;2023-04-19T06:57:03;38.73;35.94;40.33;;
46749;Laerm;33775;47.992;11.864;2023-04-19T06:59:28;38.69;35.94;40.23;;
46749;Laerm;33775;47.992;11.864;2023-04-19T07:01:55;38.67;33.90;40.23;;
46749;Laerm;33775;47.992;11.864;2023-04-19T07:04:22;38.62;35.36;40.23;;
46749;Laerm;33775;47.992;11.864;2023-04-19T07:06:47;38.59;35.94;40.23;;
46749;Laerm;33775;47.992;11.864;2023-04-19T07:09:13;38.57;34.69;40.13;;
46749;Laerm;33775;47.992;11.864;2023-04-19T07:11:38;38.66;34.31;40.23;;
46749;Laerm;33775;47.992;11.864;2023-04-19T07:14:03;38.59;35.36;40.33;;
46749;Laerm;33775;47.992;11.864;2023-04-19T07:16:28;38.64;33.44;40.33;;
46749;Laerm;33775;47.992;11.864;2023-04-19T07:18:53;38.77;34.69;40.43;;
46749;Laerm;33775;47.992;11.864;2023-04-19T07:21:19;38.77;35.66;40.33;;
46749;Laerm;33775;47.992;11.864;2023-04-19T07:23:44;38.70;34.31;40.33;;
46749;Laerm;33775;47.992;11.864;2023-04-19T07:26:10;38.73;35.36;40.23;;
46749;Laerm;33775;47.992;11.864;2023-04-19T07:28:35;38.57;35.94;40.33;;
46749;Laerm;33775;47.992;11.864;2023-04-19T07:31:00;38.49;34.31;40.23;;
46749;Laerm;33775;47.992;11.864;2023-04-19T07:33:26;38.39;34.69;40.03;;
46749;Laerm;33775;47.992;11.864;2023-04-19T07:35:52;38.25;33.90;39.92;;
46749;Laerm;33775;47.992;11.864;2023-04-19T07:38:17;38.15;34.69;39.92;;
46749;Laerm;33775;47.992;11.864;2023-04-19T07:40:43;38.03;33.90;39.92;;
46749;Laerm;33775;47.992;11.864;2023-04-19T07:43:08;38.06;34.69;39.81;;
46749;Laerm;33775;47.992;11.864;2023-04-19T07:45:34;38.03;33.90;40.03;;
46749;Laerm;33775;47.992;11.864;2023-04-19T07:47:59;38.01;32.35;39.92;;
46749;Laerm;33775;47.992;11.864;2023-04-19T07:50:24;38.03;31.68;40.03;;
46749;Laerm;33775;47.992;11.864;2023-04-19T07:52:50;37.91;33.44;39.58;;
46749;Laerm;33775;47.992;11.864;2023-04-19T07:55:16;37.94;33.90;39.92;;
46749;Laerm;33775;47.992;11.864;2023-04-19T07:57:41;37.98;33.90;40.33;;
46749;Laerm;33775;47.992;11.864;2023-04-19T08:00:10;38.00;32.93;39.81;;
46749;Laerm;33775;47.992;11.864;2023-04-19T08:02:35;37.83;33.90;39.81;;
46749;Laerm;33775;47.992;11.864;2023-04-19T08:05:00;37.83;33.44;39.70;;
46749;Laerm;33775;47.992;11.864;2023-04-19T08:07:26;37.86;32.93;39.70;;
46749;Laerm;33775;47.992;11.864;2023-04-19T08:09:51;37.78;32.35;39.92;;
46749;Laerm;33775;47.992;11.864;2023-04-19T08:12:16;37.63;32.35;39.58;;
46749;Laerm;33775;47.992;11.864;2023-04-19T08:14:43;37.45;30.89;39.35;;
46749;Laerm;33775;47.992;11.864;2023-04-19T08:17:08;37.31;29.92;39.58;;
46749;Laerm;33775;47.992;11.864;2023-04-19T08:19:33;37.28;30.89;39.58;;
46749;Laerm;33775;47.992;11.864;2023-04-19T08:21:58;37.39;30.89;39.81;;
46749;Laerm;33775;47.992;11.864;2023-04-19T08:24:23;37.34;31.68;39.46;;
46749;Laerm;33775;47.992;11.864;2023-04-19T08:26:49;37.18;29.92;39.46;;
46749;Laerm;33775;47.992;11.864;2023-04-19T08:29:20;36.92;30.89;39.70;;
46749;Laerm;33775;47.992;11.864;2023-04-19T08:31:46;36.72;31.68;39.70;;
46749;Laerm;33775;47.992;11.864;2023-04-19T08:34:11;36.72;30.89;39.21;;
46749;Laerm;33775;47.992;11.864;2023-04-19T08:36:36;36.74;28.67;39.58;;
46749;Laerm;33775;47.992;11.864;2023-04-19T08:39:01;36.61;30.54;39.34;;
46749;Laerm;33775;47.992;11.864;2023-04-19T08:41:27;36.67;29.92;39.58;;
46749;Laerm;33775;47.992;11.864;2023-04-19T08:43:54;36.61;29.92;40.53;;
46749;Laerm;33775;47.992;11.864;2023-04-19T08:46:20;36.56;29.92;39.58;;
46749;Laerm;33775;47.992;11.864;2023-04-19T08:48:47;36.53;29.92;39.46;;
46749;Laerm;33775;47.992;11.864;2023-04-19T08:51:13;36.55;30.89;39.34;;
46749;Laerm;33775;47.992;11.864;2023-04-19T08:53:40;36.55;30.89;39.34;;
46749;Laerm;33775;47.992;11.864;2023-04-19T08:56:06;36.54;30.89;39.34;;
46749;Laerm;33775;47.992;11.864;2023-04-19T08:58:31;36.57;31.33;39.46;;
46749;Laerm;33775;47.992;11.864;2023-04-19T09:00:57;36.55;29.92;39.08;;
46749;Laerm;33775;47.992;11.864;2023-04-19T09:03:22;36.55;29.57;39.58;;
46749;Laerm;33775;47.992;11.864;2023-04-19T09:05:47;36.63;31.68;39.46;;
46749;Laerm;33775;47.992;11.864;2023-04-19T09:08:26;36.72;31.68;39.92;;
46749;Laerm;33775;47.992;11.864;2023-04-19T09:10:55;36.76;31.68;39.58;;
46749;Laerm;33775;47.992;11.864;2023-04-19T09:13:21;36.85;30.89;39.81;;
46749;Laerm;33775;47.992;11.864;2023-04-19T09:15:46;36.86;32.35;39.46;;
46749;Laerm;33775;47.992;11.864;2023-04-19T09:18:11;36.95;31.68;40.13;;
46749;Laerm;33775;47.992;11.864;2023-04-19T09:20:37;36.97;32.35;39.70;;
46749;Laerm;33775;47.992;11.864;2023-04-19T09:23:03;36.96;31.68;40.08;;
46749;Laerm;33775;47.992;11.864;2023-04-19T09:25:30;36.90;31.68;39.70;;
46749;Laerm;33775;47.992;11.864;2023-04-19T09:27:55;36.90;32.35;39.70;;
46749;Laerm;33775;47.992;11.864;2023-04-19T09:30:32;36.84;30.89;39.58;;
46749;Laerm;33775;47.992;11.864;2023-04-19T09:32:57;36.76;30.89;39.92;;
46749;Laerm;33775;47.992;11.864;2023-04-19T09:35:22;36.82;30.89;39.58;;
46749;Laerm;33775;47.992;11.864;2023-04-19T09:38:03;36.79;31.68;40.03;;
46749;Laerm;33775;47.992;11.864;2023-04-19T09:40:29;36.74;31.68;39.92;;
46749;Laerm;33775;47.992;11.864;2023-04-19T09:42:54;36.70;31.68;39.81;;
46749;Laerm;33775;47.992;11.864;2023-04-19T09:45:19;36.73;31.68;39.46;;
46749;Laerm;33775;47.992;11.864;2023-04-19T09:47:45;36.73;30.89;39.58;;
46749;Laerm;33775;47.992;11.864;2023-04-19T09:50:24;36.75;30.89;39.58;;
46749;Laerm;33775;47.992;11.864;2023-04-19T09:52:49;36.79;31.68;39.58;;
46749;Laerm;33775;47.992;11.864;2023-04-19T09:55:16;36.83;32.35;39.70;;
46749;Laerm;33775;47.992;11.864;2023-04-19T09:57:42;36.86;31.68;39.58;;
46749;Laerm;33775;47.992;11.864;2023-04-19T10:00:08;36.97;32.35;39.70;;
46749;Laerm;33775;47.992;11.864;2023-04-19T10:02:37;36.97;31.68;40.13;;
46749;Laerm;33775;47.992;11.864;2023-04-19T10:05:03;36.90;29.92;39.58;;
46749;Laerm;33775;47.992;11.864;2023-04-19T10:07:29;36.85;31.68;39.81;;
46749;Laerm;33775;47.992;11.864;2023-04-19T10:09:55;36.80;31.68;39.81;;
46749;Laerm;33775;47.992;11.864;2023-04-19T10:12:22;36.79;28.67;39.81;;
46749;Laerm;33775;47.992;11.864;2023-04-19T10:14:48;36.79;30.89;40.03;;
46749;Laerm;33775;47.992;11.864;2023-04-19T10:17:13;36.80;30.89;39.81;;
46749;Laerm;33775;47.992;11.864;2023-04-19T10:19:39;36.85;31.68;40.03;;
46749;Laerm;33775;47.992;11.864;2023-04-19T10:22:05;36.84;31.68;39.92;;
46749;Laerm;33775;47.992;11.864;2023-04-19T10:24:32;36.82;31.68;39.81;;
46749;Laerm;33775;47.992;11.864;2023-04-19T10:27:12;36.79;30.89;40.53;;
46749;Laerm;33775;47.992;11.864;2023-04-19T10:29:53;36.82;31.68;40.23;;
46749;Laerm;33775;47.992;11.864;2023-04-19T10:32:18;36.80;29.92;39.92;;
46749;Laerm;33775;47.992;11.864;2023-04-19T10:34:44;36.80;31.68;39.92;;
46749;Laerm;33775;47.992;11.864;2023-04-19T10:37:10;36.79;30.89;40.03;;
46749;Laerm;33775;47.992;11.864;2023-04-19T10:39:39;36.84;30.89;39.58;;
46749;Laerm;33775;47.992;11.864;2023-04-19T10:42:04;36.85;31.68;40.03;;
46749;Laerm;33775;47.992;11.864;2023-04-19T10:44:29;36.83;31.68;40.23;;
46749;Laerm;33775;47.992;11.864;2023-04-19T10:46:55;36.90;32.35;39.81;;
46749;Laerm;33775;47.992;11.864;2023-04-19T10:49:21;36.94;29.92;39.70;;
46749;Laerm;33775;47.992;11.864;2023-04-19T10:51:49;36.92;30.89;39.81;;
46749;Laerm;33775;47.992;11.864;2023-04-19T10:54:31;36.96;31.68;39.70;;
46749;Laerm;33775;47.992;11.864;2023-04-19T10:56:58;36.96;30.89;39.81;;
46749;Laerm;33775;47.992;11.864;2023-04-19T10:59:24;36.99;31.68;39.70;;
46749;Laerm;33775;47.992;11.864;2023-04-19T11:01:51;36.95;31.68;40.33;;
46749;Laerm;33775;47.992;11.864;2023-04-19T11:09:22;36.93;31.68;39.58;;
46749;Laerm;33775;47.992;11.864;2023-04-19T11:11:48;36.92;30.89;39.81;;
46749;Laerm;33775;47.992;11.864;2023-04-19T11:14:13;36.87;31.68;39.70;;
46749;Laerm;33775;47.992;11.864;2023-04-19T11:16:39;36.84;31.68;39.70;;
46749;Laerm;33775;47.992;11.864;2023-04-19T11:19:04;36.85;30.89;40.03;;
46749;Laerm;33775;47.992;11.864;2023-04-19T11:21:30;36.86;31.68;39.70;;
46749;Laerm;33775;47.992;11.864;2023-04-19T11:24:06;36.85;31.68;39.70;;
46749;Laerm;33775;47.992;11.864;2023-04-19T11:26:32;36.83;31.68;40.23;;
46749;Laerm;33775;47.992;11.864;2023-04-19T11:28:57;36.86;31.68;40.23;;
46749;Laerm;33775;47.992;11.864;2023-04-19T11:31:22;37.00;31.68;39.81;;
46749;Laerm;33775;47.992;11.864;2023-04-19T11:33:48;36.98;31.68;40.03;;
46749;Laerm;33775;47.992;11.864;2023-04-19T11:36:13;36.96;30.89;39.81;;
46749;Laerm;33775;47.992;11.864;2023-04-19T11:38:38;36.89;32.35;40.08;;
46749;Laerm;33775;47.992;11.864;2023-04-19T11:41:04;36.78;31.68;40.23;;
46749;Laerm;33775;47.992;11.864;2023-04-19T11:43:35;36.78;31.68;39.58;;
46749;Laerm;33775;47.992;11.864;2023-04-19T11:46:07;36.81;30.89;39.81;;
46749;Laerm;33775;47.992;11.864;2023-04-19T11:48:32;36.85;31.68;39.58;;
46749;Laerm;33775;47.992;11.864;2023-04-19T11:50:58;36.88;30.89;39.92;;
46749;Laerm;33775;47.992;11.864;2023-04-19T11:53:24;36.79;31.68;39.46;;
46749;Laerm;33775;47.992;11.864;2023-04-19T11:55:53;36.77;31.68;39.46;;
46749;Laerm;33775;47.992;11.864;2023-04-19T12:00:48;36.86;31.68;40.03;;
46749;Laerm;33775;47.992;11.864;2023-04-19T12:03:13;36.83;29.92;39.70;;
46749;Laerm;33775;47.992;11.864;2023-04-19T12:05:39;36.79;30.89;39.46;;
46749;Laerm;33775;47.992;11.864;2023-04-19T12:08:15;36.69;28.67;40.18;;
46749;Laerm;33775;47.992;11.864;2023-04-19T12:10:53;36.65;31.68;39.58;;
46749;Laerm;33775;47.992;11.864;2023-04-19T12:13:19;36.68;31.68;39.81;;
46749;Laerm;33775;47.992;11.864;2023-04-19T12:15:45;36.66;31.68;39.81;;
46749;Laerm;33775;47.992;11.864;2023-04-19T12:18:10;36.68;31.68;39.70;;
46749;Laerm;33775;47.992;11.864;2023-04-19T12:20:37;36.72;31.68;39.92;;
46749;Laerm;33775;47.992;11.864;2023-04-19T12:23:02;36.66;29.92;39.70;;
46749;Laerm;33775;47.992;11.864;2023-04-19T12:25:31;36.54;30.89;39.70;;
46749;Laerm;33775;47.992;11.864;2023-04-19T12:27:57;36.55;30.89;39.46;;
46749;Laerm;33775;47.992;11.864;2023-04-19T12:30:22;36.55;28.67;39.46;;
46749;Laerm;33775;47.992;11.864;2023-04-19T12:32:48;36.56;31.68;39.58;;
46749;Laerm;33775;47.992;11.864;2023-04-19T12:35:15;36.52;30.89;39.70;;
46749;Laerm;33775;47.992;11.864;2023-04-19T12:37:40;36.51;29.92;39.58;;
46749;Laerm;33775;47.992;11.864;2023-04-19T12:40:06;36.55;30.89;39.70;;
46749;Laerm;33775;47.992;11.864;2023-04-19T12:42:31;36.51;26.91;40.03;;
46749;Laerm;33775;47.992;11.864;2023-04-19T12:44:56;36.57;30.89;39.92;;
46749;Laerm;33775;47.992;11.864;2023-04-19T12:47:21;36.65;28.67;39.70;;
46749;Laerm;33775;47.992;11.864;2023-04-19T12:49:46;36.68;31.68;39.46;;
46749;Laerm;33775;47.992;11.864;2023-04-19T12:52:12;36.61;29.92;39.70;;
46749;Laerm;33775;47.992;11.864;2023-04-19T12:54:37;36.54;30.89;39.23;;
46749;Laerm;33775;47.992;11.864;2023-04-19T12:57:02;36.50;31.68;39.58;;
46749;Laerm;33775;47.992;11.864;2023-04-19T12:59:27;36.49;28.67;39.70;;
46749;Laerm;33775;47.992;11.864;2023-04-19T13:01:53;36.53;29.92;39.46;;
46749;Laerm;33775;47.992;11.864;2023-04-19T13:04:18;36.52;31.68;39.46;;
46749;Laerm;33775;47.992;11.864;2023-04-19T13:06:43;36.53;31.68;39.58;;
46749;Laerm;33775;47.992;11.864;2023-04-19T13:09:08;36.59;28.67;39.34;;
46749;Laerm;33775;47.992;11.864;2023-04-19T13:11:34;36.59;31.33;39.46;;
46749;Laerm;33775;47.992;11.864;2023-04-19T13:13:59;36.63;31.68;39.81;;
46749;Laerm;33775;47.992;11.864;2023-04-19T13:16:24;36.72;30.89;39.70;;
46749;Laerm;33775;47.992;11.864;2023-04-19T13:18:49;36.69;30.89;39.81;;
46749;Laerm;33775;47.992;11.864;2023-04-19T13:21:16;36.76;30.89;39.58;;
46749;Laerm;33775;47.992;11.864;2023-04-19T13:23:41;36.78;29.92;39.81;;
46749;Laerm;33775;47.992;11.864;2023-04-19T13:26:07;36.74;31.68;40.33;;
46749;Laerm;33775;47.992;11.864;2023-04-19T13:28:32;36.66;31.68;39.81;;
46749;Laerm;33775;47.992;11.864;2023-04-19T13:30:59;36.66;31.68;39.81;;